sensor_id;sensor_type;location;lat;lon;timestamp;pressure;altitude;pressure_sealevel;temperature;humidity
51603;BME280;37954;51.980;5.850;2022-12-11T00:00:32;100811.38;;;1.52;90.04
51603;BME280;37954;51.980;5.850;2022-12-11T00:04:44;100817.81;;;1.58;90.17
51603;BME280;37954;51.980;5.850;2022-12-11T00:08:55;100796.66;;;1.50;90.35
51603;BME280;37954;51.980;5.850;2022-12-11T00:13:07;100803.59;;;1.59;90.44
51603;BME280;37954;51.980;5.850;2022-12-11T00:17:19;100789.88;;;1.55;90.39
51603;BME280;37954;51.980;5.850;2022-12-11T00:21:30;100808.72;;;1.60;90.48
51603;BME280;37954;51.980;5.850;2022-12-11T00:25:44;100803.94;;;1.56;90.40
51603;BME280;37954;51.980;5.850;2022-12-11T00:29:56;100810.69;;;1.58;90.45
51603;BME280;37954;51.980;5.850;2022-12-11T00:34:09;100800.47;;;1.55;90.61
51603;BME280;37954;51.980;5.850;2022-12-11T00:38:22;100821.47;;;1.65;90.35
51603;BME280;37954;51.980;5.850;2022-12-11T00:42:34;100820.00;;;1.70;90.60
51603;BME280;37954;51.980;5.850;2022-12-11T00:46:46;100814.38;;;1.65;90.68
51603;BME280;37954;51.980;5.850;2022-12-11T00:50:57;100811.88;;;1.64;90.93
51603;BME280;37954;51.980;5.850;2022-12-11T00:55:10;100787.88;;;1.57;90.70
51603;BME280;37954;51.980;5.850;2022-12-11T00:59:22;100808.28;;;1.73;90.64
51603;BME280;37954;51.980;5.850;2022-12-11T01:03:35;100804.13;;;1.70;90.92
51603;BME280;37954;51.980;5.850;2022-12-11T01:07:47;100793.19;;;1.73;90.86
51603;BME280;37954;51.980;5.850;2022-12-11T01:11:59;100779.13;;;1.73;90.67
51603;BME280;37954;51.980;5.850;2022-12-11T01:16:13;100791.53;;;1.81;90.82
51603;BME280;37954;51.980;5.850;2022-12-11T01:20:26;100786.06;;;1.82;90.92
51603;BME280;37954;51.980;5.850;2022-12-11T01:24:38;100793.03;;;1.83;90.92
51603;BME280;37954;51.980;5.850;2022-12-11T01:28:50;100798.50;;;1.82;90.96
51603;BME280;37954;51.980;5.850;2022-12-11T01:33:02;100783.28;;;1.84;90.90
51603;BME280;37954;51.980;5.850;2022-12-11T01:37:14;100786.91;;;1.83;90.50
51603;BME280;37954;51.980;5.850;2022-12-11T01:41:26;100776.63;;;1.80;91.10
51603;BME280;37954;51.980;5.850;2022-12-11T01:45:40;100776.63;;;1.80;90.41
51603;BME280;37954;51.980;5.850;2022-12-11T01:49:52;100787.56;;;1.85;90.76
51603;BME280;37954;51.980;5.850;2022-12-11T01:54:06;100781.09;;;1.79;91.04
51603;BME280;37954;51.980;5.850;2022-12-11T01:58:21;100783.59;;;1.81;90.83
51603;BME280;37954;51.980;5.850;2022-12-11T02:02:35;100779.28;;;1.80;90.99
51603;BME280;37954;51.980;5.850;2022-12-11T02:06:49;100782.13;;;1.86;90.95
51603;BME280;37954;51.980;5.850;2022-12-11T02:11:15;100790.22;;;1.85;91.24
51603;BME280;37954;51.980;5.850;2022-12-11T02:15:50;100788.72;;;1.82;90.92
51603;BME280;37954;51.980;5.850;2022-12-11T02:20:12;100783.91;;;1.78;91.12
51603;BME280;37954;51.980;5.850;2022-12-11T02:24:50;100788.22;;;1.79;91.44
51603;BME280;37954;51.980;5.850;2022-12-11T02:29:12;100782.94;;;1.79;91.37
51603;BME280;37954;51.980;5.850;2022-12-11T02:33:35;100770.69;;;1.78;91.18
51603;BME280;37954;51.980;5.850;2022-12-11T02:37:59;100768.03;;;1.78;90.88
51603;BME280;37954;51.980;5.850;2022-12-11T02:42:13;100772.34;;;1.79;91.23
51603;BME280;37954;51.980;5.850;2022-12-11T02:46:27;100770.34;;;1.81;91.34
51603;BME280;37954;51.980;5.850;2022-12-11T02:50:44;100763.56;;;1.78;91.12
51603;BME280;37954;51.980;5.850;2022-12-11T02:54:57;100759.25;;;1.77;91.20
51603;BME280;37954;51.980;5.850;2022-12-11T02:59:18;100771.03;;;1.83;91.40
51603;BME280;37954;51.980;5.850;2022-12-11T03:03:32;100766.38;;;1.85;91.49
51603;BME280;37954;51.980;5.850;2022-12-11T03:07:44;100761.41;;;1.82;91.41
51603;BME280;37954;51.980;5.850;2022-12-11T03:11:55;100748.19;;;1.82;91.52
51603;BME280;37954;51.980;5.850;2022-12-11T03:20:44;100755.94;;;1.91;91.32
51603;BME280;37954;51.980;5.850;2022-12-11T03:25:02;100751.47;;;1.92;91.46
51603;BME280;37954;51.980;5.850;2022-12-11T03:29:20;100749.19;;;1.89;91.44
51603;BME280;37954;51.980;5.850;2022-12-11T03:33:36;100750.31;;;1.94;91.38
51603;BME280;37954;51.980;5.850;2022-12-11T03:37:50;100753.31;;;1.99;91.33
51603;BME280;37954;51.980;5.850;2022-12-11T03:42:06;100751.47;;;2.00;91.57
51603;BME280;37954;51.980;5.850;2022-12-11T03:46:21;100753.13;;;2.01;91.31
51603;BME280;37954;51.980;5.850;2022-12-11T03:50:35;100759.59;;;2.06;91.48
51603;BME280;37954;51.980;5.850;2022-12-11T03:54:48;100744.69;;;2.05;91.33
51603;BME280;37954;51.980;5.850;2022-12-11T03:59:01;100736.59;;;2.07;91.32
51603;BME280;37954;51.980;5.850;2022-12-11T04:03:12;100742.03;;;2.05;91.43
51603;BME280;37954;51.980;5.850;2022-12-11T04:07:25;100737.88;;;2.11;91.30
51603;BME280;37954;51.980;5.850;2022-12-11T04:11:37;100734.22;;;2.12;90.98
51603;BME280;37954;51.980;5.850;2022-12-11T04:15:50;100740.84;;;2.16;91.23
51603;BME280;37954;51.980;5.850;2022-12-11T04:20:03;100728.09;;;2.12;91.51
51603;BME280;37954;51.980;5.850;2022-12-11T04:24:33;100723.78;;;2.10;91.07
51603;BME280;37954;51.980;5.850;2022-12-11T04:28:46;100734.91;;;2.14;90.93
51603;BME280;37954;51.980;5.850;2022-12-11T04:32:58;100730.41;;;2.15;91.02
51603;BME280;37954;51.980;5.850;2022-12-11T04:37:09;100714.69;;;2.13;91.27
51603;BME280;37954;51.980;5.850;2022-12-11T04:41:21;100719.66;;;2.16;91.34
51603;BME280;37954;51.980;5.850;2022-12-11T04:45:32;100732.91;;;2.24;90.98
51603;BME280;37954;51.980;5.850;2022-12-11T04:49:44;100724.47;;;2.21;91.04
51603;BME280;37954;51.980;5.850;2022-12-11T04:53:57;100733.19;;;2.29;91.03
51603;BME280;37954;51.980;5.850;2022-12-11T04:58:09;100717.00;;;2.24;90.83
51603;BME280;37954;51.980;5.850;2022-12-11T05:02:20;100726.56;;;2.25;91.17
51603;BME280;37954;51.980;5.850;2022-12-11T05:06:32;100711.88;;;2.23;91.03
51603;BME280;37954;51.980;5.850;2022-12-11T05:10:44;100724.75;;;2.26;91.09
51603;BME280;37954;51.980;5.850;2022-12-11T05:15:00;100721.81;;;2.21;90.81
51603;BME280;37954;51.980;5.850;2022-12-11T05:19:12;100724.13;;;2.24;90.41
51603;BME280;37954;51.980;5.850;2022-12-11T05:23:23;100723.63;;;2.20;90.50
51603;BME280;37954;51.980;5.850;2022-12-11T05:27:35;100721.97;;;2.19;91.02
51603;BME280;37954;51.980;5.850;2022-12-11T05:31:47;100731.88;;;2.25;90.55
51603;BME280;37954;51.980;5.850;2022-12-11T05:35:59;100725.13;;;2.23;90.68
51603;BME280;37954;51.980;5.850;2022-12-11T05:40:11;100718.47;;;2.27;90.59
51603;BME280;37954;51.980;5.850;2022-12-11T05:44:23;100715.66;;;2.28;90.91
51603;BME280;37954;51.980;5.850;2022-12-11T05:48:36;100732.03;;;2.32;90.52
51603;BME280;37954;51.980;5.850;2022-12-11T05:52:47;100725.25;;;2.29;90.77
51603;BME280;37954;51.980;5.850;2022-12-11T05:56:59;100715.31;;;2.31;90.20
51603;BME280;37954;51.980;5.850;2022-12-11T06:01:26;100711.69;;;2.24;90.72
51603;BME280;37954;51.980;5.850;2022-12-11T06:05:40;100705.22;;;2.27;90.42
51603;BME280;37954;51.980;5.850;2022-12-11T06:09:52;100695.66;;;2.18;90.12
51603;BME280;37954;51.980;5.850;2022-12-11T06:14:03;100692.66;;;2.21;90.51
51603;BME280;37954;51.980;5.850;2022-12-11T06:18:15;100698.78;;;2.21;90.23
51603;BME280;37954;51.980;5.850;2022-12-11T06:22:27;100701.44;;;2.21;89.71
51603;BME280;37954;51.980;5.850;2022-12-11T06:26:39;100699.13;;;2.18;89.88
51603;BME280;37954;51.980;5.850;2022-12-11T06:30:50;100711.53;;;2.18;89.90
51603;BME280;37954;51.980;5.850;2022-12-11T06:35:02;100698.47;;;2.16;90.17
51603;BME280;37954;51.980;5.850;2022-12-11T06:39:14;100704.75;;;2.15;89.99
51603;BME280;37954;51.980;5.850;2022-12-11T06:43:26;100710.72;;;2.17;89.82
51603;BME280;37954;51.980;5.850;2022-12-11T06:47:37;100704.25;;;2.12;89.77
51603;BME280;37954;51.980;5.850;2022-12-11T06:51:49;100722.81;;;2.12;89.31
51603;BME280;37954;51.980;5.850;2022-12-11T06:56:12;100723.13;;;2.08;89.66
51603;BME280;37954;51.980;5.850;2022-12-11T07:00:24;100708.59;;;2.04;89.37
51603;BME280;37954;51.980;5.850;2022-12-11T07:04:36;100731.44;;;2.05;89.32
51603;BME280;37954;51.980;5.850;2022-12-11T07:08:47;100724.50;;;2.04;89.47
51603;BME280;37954;51.980;5.850;2022-12-11T07:12:59;100731.13;;;2.00;89.11
51603;BME280;37954;51.980;5.850;2022-12-11T07:17:10;100726.97;;;1.98;89.24
51603;BME280;37954;51.980;5.850;2022-12-11T07:21:22;100738.22;;;2.00;89.11
51603;BME280;37954;51.980;5.850;2022-12-11T07:25:35;100740.72;;;2.01;88.94
51603;BME280;37954;51.980;5.850;2022-12-11T07:29:47;100740.88;;;2.00;89.08
51603;BME280;37954;51.980;5.850;2022-12-11T07:34:04;100745.03;;;2.02;88.84
51603;BME280;37954;51.980;5.850;2022-12-11T07:38:16;100746.19;;;2.00;89.02
51603;BME280;37954;51.980;5.850;2022-12-11T07:42:27;100727.31;;;1.95;88.93
51603;BME280;37954;51.980;5.850;2022-12-11T07:46:39;100737.41;;;1.99;88.84
51603;BME280;37954;51.980;5.850;2022-12-11T07:50:50;100735.09;;;1.96;88.42
51603;BME280;37954;51.980;5.850;2022-12-11T07:55:02;100742.88;;;1.98;88.43
51603;BME280;37954;51.980;5.850;2022-12-11T07:59:14;100738.56;;;1.97;88.68
51603;BME280;37954;51.980;5.850;2022-12-11T08:03:27;100747.34;;;1.97;88.82
51603;BME280;37954;51.980;5.850;2022-12-11T08:07:38;100745.84;;;2.03;88.70
51603;BME280;37954;51.980;5.850;2022-12-11T08:11:50;100744.19;;;2.02;88.63
51603;BME280;37954;51.980;5.850;2022-12-11T08:16:03;100759.59;;;2.06;88.51
51603;BME280;37954;51.980;5.850;2022-12-11T08:20:15;100751.66;;;1.98;88.34
51603;BME280;37954;51.980;5.850;2022-12-11T08:24:27;100757.59;;;2.00;88.06
51603;BME280;37954;51.980;5.850;2022-12-11T08:28:39;100749.34;;;1.87;87.90
51603;BME280;37954;51.980;5.850;2022-12-11T08:32:50;100757.09;;;1.97;87.73
51603;BME280;37954;51.980;5.850;2022-12-11T08:37:02;100751.66;;;1.98;87.61
51603;BME280;37954;51.980;5.850;2022-12-11T08:41:20;100752.47;;;1.99;87.27
51603;BME280;37954;51.980;5.850;2022-12-11T08:45:32;100752.81;;;1.96;86.96
51603;BME280;37954;51.980;5.850;2022-12-11T08:49:44;100742.88;;;1.98;86.72
51603;BME280;37954;51.980;5.850;2022-12-11T08:53:58;100748.00;;;2.07;87.29
51603;BME280;37954;51.980;5.850;2022-12-11T08:58:09;100730.09;;;2.09;87.40
51603;BME280;37954;51.980;5.850;2022-12-11T09:02:21;100740.69;;;2.18;87.46
51603;BME280;37954;51.980;5.850;2022-12-11T09:06:33;100733.22;;;2.21;87.58
51603;BME280;37954;51.980;5.850;2022-12-11T09:10:44;100720.31;;;2.18;87.30
51603;BME280;37954;51.980;5.850;2022-12-11T09:14:56;100735.69;;;2.31;87.61
51603;BME280;37954;51.980;5.850;2022-12-11T09:19:11;100733.53;;;2.34;87.60
51603;BME280;37954;51.980;5.850;2022-12-11T09:23:24;100718.78;;;2.32;87.53
51603;BME280;37954;51.980;5.850;2022-12-11T09:27:36;100726.91;;;2.38;87.57
51603;BME280;37954;51.980;5.850;2022-12-11T09:31:47;100712.31;;;2.34;87.36
51603;BME280;37954;51.980;5.850;2022-12-11T09:36:00;100723.91;;;2.41;87.45
51603;BME280;37954;51.980;5.850;2022-12-11T09:40:13;100733.97;;;2.46;87.35
51603;BME280;37954;51.980;5.850;2022-12-11T09:44:53;100735.81;;;2.45;87.21
51603;BME280;37954;51.980;5.850;2022-12-11T09:49:15;100737.47;;;2.47;86.79
51603;BME280;37954;51.980;5.850;2022-12-11T09:53:33;100727.19;;;2.43;86.58
51603;BME280;37954;51.980;5.850;2022-12-11T09:57:53;100727.03;;;2.45;86.19
51603;BME280;37954;51.980;5.850;2022-12-11T10:15:59;100705.28;;;2.58;86.04
51603;BME280;37954;51.980;5.850;2022-12-11T10:20:25;100713.19;;;2.66;85.34
51603;BME280;37954;51.980;5.850;2022-12-11T10:24:46;100707.56;;;2.69;85.20
51603;BME280;37954;51.980;5.850;2022-12-11T10:29:20;100708.03;;;2.72;84.91
51603;BME280;37954;51.980;5.850;2022-12-11T10:34:00;100705.50;;;2.79;84.91
51603;BME280;37954;51.980;5.850;2022-12-11T10:38:33;100672.66;;;2.57;84.59
51603;BME280;37954;51.980;5.850;2022-12-11T10:42:53;100701.41;;;2.76;84.39
51603;BME280;37954;51.980;5.850;2022-12-11T10:47:10;100695.53;;;2.81;84.32
51603;BME280;37954;51.980;5.850;2022-12-11T10:51:24;100703.22;;;2.76;84.32
51603;BME280;37954;51.980;5.850;2022-12-11T10:55:44;100694.44;;;2.75;83.94
51603;BME280;37954;51.980;5.850;2022-12-11T10:59:58;100689.31;;;2.74;84.15
51603;BME280;37954;51.980;5.850;2022-12-11T11:04:25;100697.44;;;2.72;83.47
51603;BME280;37954;51.980;5.850;2022-12-11T11:08:48;100691.63;;;2.77;83.47
51603;BME280;37954;51.980;5.850;2022-12-11T11:13:01;100693.72;;;2.82;83.36
51603;BME280;37954;51.980;5.850;2022-12-11T11:17:15;100689.06;;;2.84;84.04
51603;BME280;37954;51.980;5.850;2022-12-11T11:21:27;100686.91;;;2.87;83.75
51603;BME280;37954;51.980;5.850;2022-12-11T11:25:57;100682.13;;;2.83;83.81
51603;BME280;37954;51.980;5.850;2022-12-11T11:34:29;100677.13;;;2.88;83.33
51603;BME280;37954;51.980;5.850;2022-12-11T11:38:46;100669.69;;;2.83;83.13
51603;BME280;37954;51.980;5.850;2022-12-11T11:43:35;100672.34;;;2.83;83.16
51603;BME280;37954;51.980;5.850;2022-12-11T11:52:29;100672.34;;;2.83;83.31
51603;BME280;37954;51.980;5.850;2022-12-11T11:56:45;100660.91;;;2.83;83.37
51603;BME280;37954;51.980;5.850;2022-12-11T12:00:57;100647.16;;;2.79;83.58
51603;BME280;37954;51.980;5.850;2022-12-11T12:05:12;100658.06;;;2.84;83.32
51603;BME280;37954;51.980;5.850;2022-12-11T12:14:29;100658.22;;;2.91;83.70
51603;BME280;37954;51.980;5.850;2022-12-11T12:28:49;100647.47;;;2.84;83.22
51603;BME280;37954;51.980;5.850;2022-12-11T12:33:22;100646.16;;;2.80;83.55
51603;BME280;37954;51.980;5.850;2022-12-11T12:46:49;100644.97;;;2.83;83.58
51603;BME280;37954;51.980;5.850;2022-12-11T12:51:04;100635.19;;;2.83;83.34
51603;BME280;37954;51.980;5.850;2022-12-11T12:59:33;100647.78;;;2.89;83.24
51603;BME280;37954;51.980;5.850;2022-12-11T13:04:02;100640.81;;;2.88;83.41
51603;BME280;37954;51.980;5.850;2022-12-11T13:08:24;100648.41;;;2.91;83.30
51603;BME280;37954;51.980;5.850;2022-12-11T13:17:49;100639.97;;;2.88;82.95
51603;BME280;37954;51.980;5.850;2022-12-11T13:21:36;100634.69;;;2.88;83.37
51603;BME280;37954;51.980;5.850;2022-12-11T13:25:59;100645.78;;;2.91;83.05
51603;BME280;37954;51.980;5.850;2022-12-11T13:34:28;100644.59;;;2.94;83.34
51603;BME280;37954;51.980;5.850;2022-12-11T13:38:48;100652.56;;;2.94;83.29
51603;BME280;37954;51.980;5.850;2022-12-11T13:43:04;100664.00;;;2.94;83.40
51603;BME280;37954;51.980;5.850;2022-12-11T13:47:17;100664.00;;;2.94;83.04
51603;BME280;37954;51.980;5.850;2022-12-11T13:51:31;100651.13;;;2.83;82.81
51603;BME280;37954;51.980;5.850;2022-12-11T13:55:45;100649.47;;;2.82;82.91
51603;BME280;37954;51.980;5.850;2022-12-11T13:59:57;100655.28;;;2.77;83.02
51603;BME280;37954;51.980;5.850;2022-12-11T14:04:14;100667.19;;;2.82;83.07
51603;BME280;37954;51.980;5.850;2022-12-11T14:08:33;100666.72;;;2.78;82.88
51603;BME280;37954;51.980;5.850;2022-12-11T14:13:05;100662.88;;;2.80;83.23
51603;BME280;37954;51.980;5.850;2022-12-11T14:17:24;100658.75;;;2.78;83.13
51603;BME280;37954;51.980;5.850;2022-12-11T14:21:37;100654.34;;;2.70;83.05
51603;BME280;37954;51.980;5.850;2022-12-11T14:30:28;100656.19;;;2.62;82.95
51603;BME280;37954;51.980;5.850;2022-12-11T14:34:43;100662.16;;;2.64;82.64
51603;BME280;37954;51.980;5.850;2022-12-11T14:38:59;100659.69;;;2.62;83.00
51603;BME280;37954;51.980;5.850;2022-12-11T14:43:35;100665.47;;;2.66;82.92
51603;BME280;37954;51.980;5.850;2022-12-11T14:47:48;100655.50;;;2.68;83.41
51603;BME280;37954;51.980;5.850;2022-12-11T14:52:01;100662.47;;;2.69;83.16
51603;BME280;37954;51.980;5.850;2022-12-11T14:56:18;100666.28;;;2.66;83.24
51603;BME280;37954;51.980;5.850;2022-12-11T15:00:32;100669.59;;;2.68;83.06
51603;BME280;37954;51.980;5.850;2022-12-11T15:05:01;100666.94;;;2.68;83.31
51603;BME280;37954;51.980;5.850;2022-12-11T15:13:32;100669.81;;;2.59;83.16
51603;BME280;37954;51.980;5.850;2022-12-11T15:17:47;100665.16;;;2.61;82.99
51603;BME280;37954;51.980;5.850;2022-12-11T15:22:05;100671.28;;;2.61;83.25
51603;BME280;37954;51.980;5.850;2022-12-11T15:26:19;100673.47;;;2.58;83.33
51603;BME280;37954;51.980;5.850;2022-12-11T15:30:33;100674.31;;;2.50;83.04
51603;BME280;37954;51.980;5.850;2022-12-11T15:34:50;100673.84;;;2.47;83.26
51603;BME280;37954;51.980;5.850;2022-12-11T15:39:03;100679.13;;;2.47;83.23
51603;BME280;37954;51.980;5.850;2022-12-11T15:43:19;100689.91;;;2.45;83.02
51603;BME280;37954;51.980;5.850;2022-12-11T15:47:31;100687.25;;;2.45;83.39
51603;BME280;37954;51.980;5.850;2022-12-11T15:51:43;100692.94;;;2.42;83.48
51603;BME280;37954;51.980;5.850;2022-12-11T15:55:56;100696.75;;;2.39;83.31
51603;BME280;37954;51.980;5.850;2022-12-11T16:00:12;100692.28;;;2.40;83.42
51603;BME280;37954;51.980;5.850;2022-12-11T16:04:24;100692.78;;;2.35;83.26
51603;BME280;37954;51.980;5.850;2022-12-11T16:08:36;100696.09;;;2.37;83.46
51603;BME280;37954;51.980;5.850;2022-12-11T16:12:47;100693.56;;;2.44;83.92
51603;BME280;37954;51.980;5.850;2022-12-11T16:16:59;100686.44;;;2.44;83.59
51603;BME280;37954;51.980;5.850;2022-12-11T16:21:11;100674.38;;;2.42;83.52
51603;BME280;37954;51.980;5.850;2022-12-11T16:25:30;100692.09;;;2.41;83.52
51603;BME280;37954;51.980;5.850;2022-12-11T16:29:43;100681.31;;;2.43;83.73
51603;BME280;37954;51.980;5.850;2022-12-11T16:33:54;100678.19;;;2.39;83.68
51603;BME280;37954;51.980;5.850;2022-12-11T16:38:06;100660.47;;;2.40;83.70
51603;BME280;37954;51.980;5.850;2022-12-11T16:42:18;100659.31;;;2.34;83.21
51603;BME280;37954;51.980;5.850;2022-12-11T16:46:30;100655.84;;;2.34;83.64
51603;BME280;37954;51.980;5.850;2022-12-11T16:50:42;100662.75;;;2.43;83.78
51603;BME280;37954;51.980;5.850;2022-12-11T16:54:55;100684.28;;;2.48;83.62
51603;BME280;37954;51.980;5.850;2022-12-11T16:59:07;100685.94;;;2.49;83.41
51603;BME280;37954;51.980;5.850;2022-12-11T17:03:19;100677.81;;;2.42;83.61
51603;BME280;37954;51.980;5.850;2022-12-11T17:07:31;100681.13;;;2.44;83.47
51603;BME280;37954;51.980;5.850;2022-12-11T17:11:43;100660.66;;;2.30;83.40
51603;BME280;37954;51.980;5.850;2022-12-11T17:15:55;100676.66;;;2.45;83.45
51603;BME280;37954;51.980;5.850;2022-12-11T17:20:07;100668.78;;;2.29;83.71
51603;BME280;37954;51.980;5.850;2022-12-11T17:24:19;100684.97;;;2.42;83.20
51603;BME280;37954;51.980;5.850;2022-12-11T17:28:31;100684.16;;;2.41;83.29
51603;BME280;37954;51.980;5.850;2022-12-11T17:32:46;100691.44;;;2.39;83.45
51603;BME280;37954;51.980;5.850;2022-12-11T17:36:58;100678.84;;;2.41;83.65
51603;BME280;37954;51.980;5.850;2022-12-11T17:41:11;100664.13;;;2.31;83.29
51603;BME280;37954;51.980;5.850;2022-12-11T17:45:30;100679.84;;;2.40;83.54
51603;BME280;37954;51.980;5.850;2022-12-11T17:49:42;100683.66;;;2.38;83.45
51603;BME280;37954;51.980;5.850;2022-12-11T17:53:54;100681.34;;;2.35;82.88
51603;BME280;37954;51.980;5.850;2022-12-11T17:58:06;100671.41;;;2.37;83.05
51603;BME280;37954;51.980;5.850;2022-12-11T18:02:17;100683.50;;;2.39;83.53
51603;BME280;37954;51.980;5.850;2022-12-11T18:06:29;100683.00;;;2.36;83.08
51603;BME280;37954;51.980;5.850;2022-12-11T18:10:42;100695.91;;;2.39;83.19
51603;BME280;37954;51.980;5.850;2022-12-11T18:14:53;100677.88;;;2.34;83.60
51603;BME280;37954;51.980;5.850;2022-12-11T18:19:09;100671.25;;;2.38;83.34
51603;BME280;37954;51.980;5.850;2022-12-11T18:23:21;100692.09;;;2.41;83.14
51603;BME280;37954;51.980;5.850;2022-12-11T18:27:32;100699.41;;;2.39;83.08
51603;BME280;37954;51.980;5.850;2022-12-11T18:31:44;100701.22;;;2.39;82.90
51603;BME280;37954;51.980;5.850;2022-12-11T18:35:55;100694.59;;;2.35;82.84
51603;BME280;37954;51.980;5.850;2022-12-11T18:40:08;100697.41;;;2.33;82.67
51603;BME280;37954;51.980;5.850;2022-12-11T18:44:20;100693.78;;;2.34;82.94
51603;BME280;37954;51.980;5.850;2022-12-11T18:48:33;100689.63;;;2.32;82.58
51603;BME280;37954;51.980;5.850;2022-12-11T18:52:44;100700.22;;;2.32;82.62
51603;BME280;37954;51.980;5.850;2022-12-11T18:56:56;100695.09;;;2.30;82.71
51603;BME280;37954;51.980;5.850;2022-12-11T19:01:15;100688.81;;;2.31;82.58
51603;BME280;37954;51.980;5.850;2022-12-11T19:05:28;100689.97;;;2.29;82.57
51603;BME280;37954;51.980;5.850;2022-12-11T19:09:39;100680.53;;;2.26;82.37
51603;BME280;37954;51.980;5.850;2022-12-11T19:13:58;100680.91;;;2.23;82.37
51603;BME280;37954;51.980;5.850;2022-12-11T19:18:10;100683.84;;;2.28;82.44
51603;BME280;37954;51.980;5.850;2022-12-11T19:22:21;100689.47;;;2.25;82.32
51603;BME280;37954;51.980;5.850;2022-12-11T19:26:34;100693.44;;;2.29;82.18
51603;BME280;37954;51.980;5.850;2022-12-11T19:30:47;100699.09;;;2.26;82.15
51603;BME280;37954;51.980;5.850;2022-12-11T19:34:59;100699.75;;;2.28;81.89
51603;BME280;37954;51.980;5.850;2022-12-11T19:39:11;100681.72;;;2.24;82.19
51603;BME280;37954;51.980;5.850;2022-12-11T19:43:24;100689.47;;;2.25;82.08
51603;BME280;37954;51.980;5.850;2022-12-11T19:47:36;100683.00;;;2.28;82.15
51603;BME280;37954;51.980;5.850;2022-12-11T19:51:47;100691.78;;;2.28;82.22
51603;BME280;37954;51.980;5.850;2022-12-11T19:55:59;100689.63;;;2.32;82.35
51603;BME280;37954;51.980;5.850;2022-12-11T20:00:11;100698.41;;;2.32;82.14
51603;BME280;37954;51.980;5.850;2022-12-11T20:04:23;100696.91;;;2.38;81.85
51603;BME280;37954;51.980;5.850;2022-12-11T20:08:35;100702.38;;;2.36;82.16
51603;BME280;37954;51.980;5.850;2022-12-11T20:12:55;100706.03;;;2.35;82.45
51603;BME280;37954;51.980;5.850;2022-12-11T20:17:08;100705.53;;;2.32;81.83
51603;BME280;37954;51.980;5.850;2022-12-11T20:21:24;100705.38;;;2.33;82.04
51603;BME280;37954;51.980;5.850;2022-12-11T20:25:38;100712.66;;;2.39;81.92
51603;BME280;37954;51.980;5.850;2022-12-11T20:29:50;100708.19;;;2.32;82.25
51603;BME280;37954;51.980;5.850;2022-12-11T20:34:03;100713.16;;;2.35;82.02
51603;BME280;37954;51.980;5.850;2022-12-11T20:38:15;100704.53;;;2.33;82.17
51603;BME280;37954;51.980;5.850;2022-12-11T20:42:26;100706.03;;;2.35;81.98
51603;BME280;37954;51.980;5.850;2022-12-11T20:46:38;100703.38;;;2.35;82.31
51603;BME280;37954;51.980;5.850;2022-12-11T20:50:49;100711.81;;;2.39;82.17
51603;BME280;37954;51.980;5.850;2022-12-11T20:55:01;100704.03;;;2.37;82.20
51603;BME280;37954;51.980;5.850;2022-12-11T20:59:12;100700.91;;;2.34;82.36
51603;BME280;37954;51.980;5.850;2022-12-11T21:03:24;100694.94;;;2.32;82.29
51603;BME280;37954;51.980;5.850;2022-12-11T21:07:36;100716.28;;;2.38;82.47
51603;BME280;37954;51.980;5.850;2022-12-11T21:11:48;100713.81;;;2.37;82.18
51603;BME280;37954;51.980;5.850;2022-12-11T21:16:03;100700.91;;;2.34;81.89
51603;BME280;37954;51.980;5.850;2022-12-11T21:20:15;100703.72;;;2.32;82.13
51603;BME280;37954;51.980;5.850;2022-12-11T21:24:27;100701.72;;;2.34;82.24
51603;BME280;37954;51.980;5.850;2022-12-11T21:28:40;100701.06;;;2.32;81.87
51603;BME280;37954;51.980;5.850;2022-12-11T21:32:51;100708.69;;;2.35;82.47
51603;BME280;37954;51.980;5.850;2022-12-11T21:37:03;100692.44;;;2.30;82.04
51603;BME280;37954;51.980;5.850;2022-12-11T21:41:20;100696.94;;;2.30;82.20
51603;BME280;37954;51.980;5.850;2022-12-11T21:45:34;100695.44;;;2.27;82.57
51603;BME280;37954;51.980;5.850;2022-12-11T21:50:07;100704.03;;;2.29;82.32
51603;BME280;37954;51.980;5.850;2022-12-11T21:54:18;100705.03;;;2.28;82.46
51603;BME280;37954;51.980;5.850;2022-12-11T21:58:30;100707.03;;;2.26;82.50
51603;BME280;37954;51.980;5.850;2022-12-11T22:02:42;100696.09;;;2.29;82.47
51603;BME280;37954;51.980;5.850;2022-12-11T22:06:53;100721.09;;;2.35;82.40
51603;BME280;37954;51.980;5.850;2022-12-11T22:11:06;100724.06;;;2.40;82.31
51603;BME280;37954;51.980;5.850;2022-12-11T22:15:18;100715.97;;;2.33;82.65
51603;BME280;37954;51.980;5.850;2022-12-11T22:19:29;100709.50;;;2.28;82.69
51603;BME280;37954;51.980;5.850;2022-12-11T22:23:43;100724.41;;;2.37;82.28
51603;BME280;37954;51.980;5.850;2022-12-11T22:27:55;100735.69;;;2.39;82.51
51603;BME280;37954;51.980;5.850;2022-12-11T22:32:06;100739.31;;;2.38;82.32
51603;BME280;37954;51.980;5.850;2022-12-11T22:36:19;100738.16;;;2.32;81.79
51603;BME280;37954;51.980;5.850;2022-12-11T22:40:30;100746.63;;;2.36;81.40
51603;BME280;37954;51.980;5.850;2022-12-11T22:44:42;100740.31;;;2.37;81.73
51603;BME280;37954;51.980;5.850;2022-12-11T22:48:54;100733.53;;;2.34;81.85
51603;BME280;37954;51.980;5.850;2022-12-11T22:53:06;100729.56;;;2.30;81.97
51603;BME280;37954;51.980;5.850;2022-12-11T22:57:17;100736.19;;;2.34;81.36
51603;BME280;37954;51.980;5.850;2022-12-11T23:01:29;100737.66;;;2.29;81.81
51603;BME280;37954;51.980;5.850;2022-12-11T23:05:41;100729.88;;;2.27;81.35
51603;BME280;37954;51.980;5.850;2022-12-11T23:09:53;100721.78;;;2.29;81.62
51603;BME280;37954;51.980;5.850;2022-12-11T23:14:07;100733.72;;;2.25;81.47
51603;BME280;37954;51.980;5.850;2022-12-11T23:18:19;100742.31;;;2.35;81.59
51603;BME280;37954;51.980;5.850;2022-12-11T23:22:31;100741.81;;;2.31;81.38
51603;BME280;37954;51.980;5.850;2022-12-11T23:26:43;100743.97;;;2.28;80.94
51603;BME280;37954;51.980;5.850;2022-12-11T23:30:55;100731.72;;;2.27;81.42
51603;BME280;37954;51.980;5.850;2022-12-11T23:35:07;100736.00;;;2.28;81.03
51603;BME280;37954;51.980;5.850;2022-12-11T23:39:18;100730.41;;;2.23;81.21